Time;durP1;ratioP1;P1;durP2;ratioP2;P2;SDS_P1;SDS_P2;PMS_P1;PMS_P2;Temp;Humidity;BMP_temperature;BMP_pressure;BME280_temperature;BME280_humidity;BME280_pressure;Samples;Min_cycle;Max_cycle;Signal;HPM_P1;HPM_P2
2021/08/27 00:00:09;;;;;;;12.03;8.40;;;24.00;80.60;;;;;;1820385;78;21155;-57
2021/08/27 00:02:38;;;;;;;8.48;7.33;;;24.00;80.80;;;;;;1820386;78;21054;-57
2021/08/27 00:05:09;;;;;;;10.13;9.10;;;24.00;80.90;;;;;;1820492;78;21053;-57
2021/08/27 00:07:38;;;;;;;8.90;8.00;;;24.00;81.40;;;;;;1820503;78;21119;-57
2021/08/27 00:10:08;;;;;;;8.90;8.00;;;24.00;81.10;;;;;;1820418;79;21128;-57
2021/08/27 00:12:38;;;;;;;9.88;7.87;;;24.00;81.10;;;;;;1820363;79;21042;-57
2021/08/27 00:15:09;;;;;;;9.90;8.90;;;24.00;81.30;;;;;;1820400;79;21042;-57
2021/08/27 00:17:38;;;;;;;9.68;8.75;;;24.00;81.20;;;;;;1820453;79;21116;-57
2021/08/27 00:20:08;;;;;;;12.47;8.75;;;24.00;81.20;;;;;;1820501;79;21155;-57
2021/08/27 00:22:38;;;;;;;10.72;9.25;;;24.00;81.30;;;;;;1820537;79;21046;-58
2021/08/27 00:25:08;;;;;;;12.75;8.88;;;24.10;81.10;;;;;;1820539;79;21081;-57
2021/08/27 00:27:38;;;;;;;10.88;8.80;;;24.00;81.00;;;;;;1820481;79;21026;-57
2021/08/27 00:30:08;;;;;;;12.58;7.78;;;23.90;81.20;;;;;;1820469;79;21048;-57
2021/08/27 00:32:38;;;;;;;11.38;8.45;;;23.80;81.20;;;;;;1820469;79;21038;-57
2021/08/27 00:35:08;;;;;;;12.50;8.03;;;23.80;81.20;;;;;;1820440;79;21045;-57
2021/08/27 00:37:37;;;;;;;9.88;8.08;;;23.80;81.30;;;;;;1820624;78;21022;-56
2021/08/27 00:40:08;;;;;;;12.88;9.63;;;23.80;81.30;;;;;;1820445;79;21092;-57
2021/08/27 00:42:37;;;;;;;14.15;9.93;;;23.70;81.10;;;;;;1820437;79;21100;-56
2021/08/27 00:45:08;;;;;;;14.30;9.08;;;23.60;80.90;;;;;;1820415;79;21054;-57
2021/08/27 00:47:37;;;;;;;12.82;9.65;;;23.50;81.00;;;;;;1820462;79;21096;-57
2021/08/27 00:50:08;;;;;;;15.43;9.43;;;23.40;81.20;;;;;;1820488;79;21105;-57
2021/08/27 00:52:38;;;;;;;11.70;9.73;;;23.30;81.30;;;;;;1820688;79;21539;-57
2021/08/27 00:55:09;;;;;;;12.82;8.93;;;23.20;81.70;;;;;;1820494;79;21078;-57
2021/08/27 00:57:41;;;;;;;12.15;8.68;;;23.20;81.90;;;;;;1820442;79;21108;-57
2021/08/27 01:00:11;;;;;;;11.50;8.60;;;23.20;82.00;;;;;;1820581;78;21081;-57
2021/08/27 01:02:41;;;;;;;12.53;9.15;;;23.20;82.10;;;;;;1820494;79;21022;-57
2021/08/27 01:05:12;;;;;;;11.80;8.98;;;23.20;82.00;;;;;;1820550;79;21022;-57
2021/08/27 01:07:44;;;;;;;10.63;8.68;;;23.20;81.90;;;;;;1820442;79;21010;-56
2021/08/27 01:10:16;;;;;;;12.33;8.78;;;23.20;81.80;;;;;;1819874;78;21159;-57
2021/08/27 01:13:12;;;;;;;11.65;9.50;;;23.30;81.90;;;;;;1820601;78;21038;-57
2021/08/27 01:15:53;;;;;;;14.03;9.35;;;23.30;81.70;;;;;;1820606;79;21132;-57
2021/08/27 01:18:28;;;;;;;15.15;7.95;;;23.20;81.70;;;;;;1820545;79;21123;-57
2021/08/27 01:21:10;;;;;;;13.50;9.30;;;23.20;82.00;;;;;;1816837;78;21101;-57
2021/08/27 01:23:47;;;;;;;9.73;8.53;;;23.20;82.20;;;;;;1819298;78;21164;-57
2021/08/27 01:26:19;;;;;;;13.18;9.80;;;23.20;82.30;;;;;;1820604;79;21074;-57
2021/08/27 01:28:51;;;;;;;13.18;9.43;;;23.20;82.10;;;;;;1820557;79;21046;-57
2021/08/27 01:31:25;;;;;;;13.88;9.18;;;23.20;81.80;;;;;;1820690;79;21112;-57
2021/08/27 01:34:08;;;;;;;;;;;23.10;81.90;;;;;;1823129;78;21144;-56
2021/08/27 01:36:38;;;;;;;11.88;9.53;;;23.10;81.80;;;;;;1819555;78;20151;-57
2021/08/27 01:39:10;;;;;;;11.78;9.45;;;23.10;81.80;;;;;;1820544;78;21057;-57
2021/08/27 01:41:41;;;;;;;13.35;9.63;;;23.10;82.10;;;;;;1820694;79;21046;-57
2021/08/27 01:44:13;;;;;;;12.78;8.93;;;23.20;82.10;;;;;;1820541;79;21124;-57
2021/08/27 01:46:44;;;;;;;15.78;9.45;;;23.20;82.10;;;;;;1820560;79;21127;-57
2021/08/27 01:49:14;;;;;;;10.88;9.15;;;23.20;82.10;;;;;;1820598;79;21050;-57
2021/08/27 01:51:45;;;;;;;10.93;8.60;;;23.20;82.10;;;;;;1820739;79;21041;-57
2021/08/27 01:54:18;;;;;;;17.80;9.70;;;23.20;82.30;;;;;;1820483;79;21042;-57
2021/08/27 01:56:48;;;;;;;12.53;9.10;;;23.10;82.20;;;;;;1820596;79;21065;-57
2021/08/27 01:59:18;;;;;;;11.73;9.28;;;23.20;82.30;;;;;;1820405;79;21065;-57
2021/08/27 02:01:48;;;;;;;15.03;9.18;;;23.20;82.20;;;;;;1813150;79;21118;-57
2021/08/27 02:04:20;;;;;;;14.90;10.05;;;23.20;82.00;;;;;;1811161;78;21131;-57
2021/08/27 02:06:50;;;;;;;14.63;9.45;;;23.20;82.00;;;;;;1811336;79;21035;-57
2021/08/27 02:09:20;;;;;;;11.83;9.65;;;23.20;82.20;;;;;;1811403;78;21042;-57
2021/08/27 02:11:50;;;;;;;13.70;9.03;;;23.10;82.20;;;;;;1811332;79;21022;-57
2021/08/27 02:14:20;;;;;;;11.63;8.55;;;23.10;82.40;;;;;;1811356;79;21045;-57
2021/08/27 02:16:50;;;;;;;13.78;9.20;;;23.10;82.40;;;;;;1811314;79;21022;-56
2021/08/27 02:19:19;;;;;;;11.88;10.20;;;23.10;82.30;;;;;;1811414;79;21128;-57
2021/08/27 02:21:51;;;;;;;14.75;9.70;;;23.10;82.40;;;;;;1811253;79;21022;-57
2021/08/27 02:24:23;;;;;;;11.57;9.95;;;23.10;82.50;;;;;;1811353;79;21007;-57
2021/08/27 02:26:54;;;;;;;10.32;9.28;;;23.10;82.50;;;;;;1810592;78;21148;-57
2021/08/27 02:29:26;;;;;;;11.80;9.53;;;23.10;82.50;;;;;;1811483;79;21070;-57
2021/08/27 02:32:02;;;;;;;13.53;10.28;;;23.10;82.60;;;;;;1811394;79;21062;-57
2021/08/27 02:34:29;;;;;;;12.95;9.45;;;23.10;82.60;;;;;;1810510;78;21051;-56
2021/08/27 02:37:00;;;;;;;21.57;10.38;;;23.00;82.70;;;;;;1811346;79;21046;-57
2021/08/27 02:39:30;;;;;;;11.40;9.00;;;23.00;82.70;;;;;;1811386;79;21054;-57
2021/08/27 02:42:00;;;;;;;11.65;8.90;;;23.00;82.70;;;;;;1811405;79;21050;-57
2021/08/27 02:44:29;;;;;;;15.15;8.83;;;23.10;82.90;;;;;;1811387;79;21041;-57
2021/08/27 02:46:58;;;;;;;10.98;9.18;;;23.10;82.90;;;;;;1811304;79;21128;-57
2021/08/27 02:49:28;;;;;;;14.75;10.13;;;23.10;82.60;;;;;;1811265;78;21042;-57
2021/08/27 02:52:21;;;;;;;13.72;9.80;;;23.00;82.40;;;;;;1811274;79;21022;-57
2021/08/27 02:55:22;;;;;;;13.38;9.93;;;22.90;82.20;;;;;;1811089;78;21521;-57
2021/08/27 02:57:57;;;;;;;13.35;10.15;;;22.80;82.40;;;;;;1811337;79;21120;-57
2021/08/27 03:00:29;;;;;;;11.38;9.10;;;22.60;82.50;;;;;;1811230;79;21134;-56
2021/08/27 03:02:58;;;;;;;21.17;10.30;;;22.50;82.80;;;;;;1811289;79;21445;-57
2021/08/27 03:05:31;;;;;;;12.90;8.95;;;22.50;83.30;;;;;;1811171;79;21054;-57
2021/08/27 03:08:06;;;;;;;12.23;8.98;;;22.50;83.60;;;;;;1811327;79;21057;-57
2021/08/27 03:10:40;;;;;;;10.68;8.53;;;22.60;83.60;;;;;;1811349;79;21128;-57
2021/08/27 03:13:18;;;;;;;13.78;8.55;;;22.60;83.40;;;;;;1811445;78;21018;-57
2021/08/27 03:15:49;;;;;;;13.53;9.58;;;22.60;83.30;;;;;;1811208;79;21156;-57
2021/08/27 03:18:27;;;;;;;12.10;8.60;;;22.70;83.40;;;;;;1811382;78;21504;-57
2021/08/27 03:21:05;;;;;;;16.87;9.83;;;22.80;83.40;;;;;;1810404;78;21175;-57
2021/08/27 03:23:37;;;;;;;16.48;9.25;;;22.80;83.40;;;;;;1811227;78;21030;-57
2021/08/27 03:26:09;;;;;;;17.87;9.95;;;22.90;84.00;;;;;;1811436;79;21110;-57
2021/08/27 03:28:44;;;;;;;11.40;9.45;;;22.90;83.20;;;;;;1811318;79;21586;-57
2021/08/27 03:31:15;;;;;;;11.08;8.98;;;22.90;83.20;;;;;;1811399;78;21047;-57
2021/08/27 03:33:45;;;;;;;12.37;9.50;;;23.00;83.30;;;;;;1811286;78;21115;-57
2021/08/27 03:36:14;;;;;;;11.50;9.90;;;23.00;83.40;;;;;;1811384;78;21108;-57
2021/08/27 03:38:44;;;;;;;11.00;9.35;;;23.10;83.50;;;;;;1811271;78;21116;-57
2021/08/27 03:41:13;;;;;;;9.68;8.58;;;23.20;83.50;;;;;;1811210;79;21054;-56
2021/08/27 03:43:44;;;;;;;10.80;9.00;;;23.30;83.40;;;;;;1811238;79;21046;-57
2021/08/27 03:46:14;;;;;;;12.68;9.80;;;23.30;83.30;;;;;;1811271;78;21050;-57
2021/08/27 03:48:44;;;;;;;17.40;10.63;;;23.30;83.10;;;;;;1811368;78;21050;-57
2021/08/27 03:51:14;;;;;;;11.68;9.50;;;23.30;83.00;;;;;;1811401;79;21161;-57
2021/08/27 03:53:44;;;;;;;15.70;8.98;;;23.30;83.20;;;;;;1811337;79;21136;-57
2021/08/27 03:56:15;;;;;;;10.32;9.23;;;23.30;83.40;;;;;;1811316;79;21120;-57
2021/08/27 03:58:46;;;;;;;16.52;10.45;;;23.30;83.50;;;;;;1811443;78;21140;-57
2021/08/27 04:01:16;;;;;;;15.30;10.50;;;23.40;83.40;;;;;;1812036;78;21128;-57
2021/08/27 04:03:45;;;;;;;15.15;9.43;;;23.40;83.30;;;;;;1820346;79;21139;-57
2021/08/27 04:06:15;;;;;;;9.73;8.73;;;23.40;83.40;;;;;;1820405;79;21026;-57
2021/08/27 04:08:45;;;;;;;14.40;9.80;;;23.50;83.50;;;;;;1820499;79;21050;-57
2021/08/27 04:11:17;;;;;;;13.25;8.70;;;23.50;83.40;;;;;;1820421;79;21128;-57
2021/08/27 04:13:47;;;;;;;13.60;9.68;;;23.60;83.30;;;;;;1820405;78;21046;-57
2021/08/27 04:16:16;;;;;;;15.63;9.38;;;23.60;83.30;;;;;;1820520;79;21108;-57
2021/08/27 04:18:45;;;;;;;19.15;9.73;;;23.70;83.20;;;;;;1820422;79;21128;-57
2021/08/27 04:21:15;;;;;;;14.45;9.15;;;23.80;83.20;;;;;;1820389;79;21034;-57
2021/08/27 04:23:44;;;;;;;13.13;10.38;;;23.80;83.00;;;;;;1820364;79;21114;-57
2021/08/27 04:26:14;;;;;;;16.00;10.88;;;23.80;82.90;;;;;;1820382;79;21046;-57
2021/08/27 04:28:43;;;;;;;13.45;9.48;;;23.90;83.00;;;;;;1820419;79;21053;-57
2021/08/27 04:31:13;;;;;;;13.40;9.78;;;23.90;83.00;;;;;;1820432;79;21093;-57
2021/08/27 04:33:42;;;;;;;14.65;10.43;;;24.00;83.10;;;;;;1820432;79;21049;-57
2021/08/27 04:36:11;;;;;;;16.97;10.32;;;24.00;83.00;;;;;;1820598;79;21065;-57
2021/08/27 04:38:41;;;;;;;18.75;10.93;;;24.10;82.90;;;;;;1820407;79;21111;-57
2021/08/27 04:41:11;;;;;;;15.40;10.93;;;24.10;82.80;;;;;;1820434;79;21128;-57
2021/08/27 04:43:40;;;;;;;23.02;19.42;;;24.10;82.70;;;;;;1820524;79;21201;-57
2021/08/27 04:46:13;;;;;;;19.92;10.93;;;24.20;82.80;;;;;;1820454;79;21022;-57
2021/08/27 04:48:43;;;;;;;14.67;9.90;;;24.20;82.60;;;;;;1820624;79;21054;-57
2021/08/27 04:51:13;;;;;;;13.15;10.25;;;24.30;82.60;;;;;;1820385;79;21022;-57
2021/08/27 04:53:42;;;;;;;14.63;10.30;;;24.40;82.50;;;;;;1820389;79;21046;-57
2021/08/27 04:56:12;;;;;;;13.25;10.15;;;24.40;82.40;;;;;;1820440;79;21062;-57
2021/08/27 04:58:41;;;;;;;13.35;10.28;;;24.50;82.20;;;;;;1820358;79;21054;-57
2021/08/27 05:01:11;;;;;;;13.32;11.03;;;24.50;82.20;;;;;;1820552;79;21120;-57
2021/08/27 05:03:40;;;;;;;13.15;9.98;;;24.60;82.30;;;;;;1812685;79;21128;-57
2021/08/27 05:06:10;;;;;;;18.60;10.15;;;24.70;82.20;;;;;;1811208;79;21046;-57
2021/08/27 05:08:39;;;;;;;14.20;9.73;;;24.80;82.10;;;;;;1811336;79;21090;-57
2021/08/27 05:11:09;;;;;;;14.25;10.23;;;24.90;82.00;;;;;;1811331;79;21034;-57
2021/08/27 05:13:38;;;;;;;19.55;9.83;;;25.00;81.70;;;;;;1811215;78;21171;-57
2021/08/27 05:16:08;;;;;;;17.62;11.43;;;25.10;81.50;;;;;;1811323;78;21101;-56
2021/08/27 05:18:37;;;;;;;16.80;11.25;;;25.10;81.30;;;;;;1811192;79;21042;-57
2021/08/27 05:21:06;;;;;;;9.53;8.53;;;25.20;81.10;;;;;;1811173;79;21195;-57
2021/08/27 05:23:36;;;;;;;11.70;8.95;;;25.30;81.00;;;;;;1811150;79;21050;-57
2021/08/27 05:26:05;;;;;;;13.83;8.73;;;25.30;80.80;;;;;;1811143;79;21046;-57
2021/08/27 05:28:35;;;;;;;14.85;10.38;;;25.40;80.30;;;;;;1811262;79;21116;-57
2021/08/27 05:31:04;;;;;;;12.43;8.73;;;25.40;80.10;;;;;;1811243;79;21065;-57
2021/08/27 05:33:33;;;;;;;11.73;8.60;;;25.50;79.60;;;;;;1811255;78;21050;-57
2021/08/27 05:36:03;;;;;;;21.45;9.95;;;25.50;79.50;;;;;;1811279;78;21046;-57
2021/08/27 05:38:32;;;;;;;13.90;9.60;;;25.60;79.30;;;;;;1811272;79;21120;-57
2021/08/27 05:41:02;;;;;;;10.63;8.08;;;25.60;78.90;;;;;;1811292;79;21069;-57
2021/08/27 05:43:31;;;;;;;8.73;7.33;;;25.70;78.60;;;;;;1811237;79;21050;-57
2021/08/27 05:46:01;;;;;;;12.00;8.75;;;25.70;78.50;;;;;;1811200;79;21127;-57
2021/08/27 05:48:30;;;;;;;12.63;8.53;;;25.80;77.90;;;;;;1811183;78;21132;-57
2021/08/27 05:51:00;;;;;;;10.43;8.25;;;25.80;77.40;;;;;;1811230;79;21062;-56
2021/08/27 05:53:29;;;;;;;12.05;8.28;;;25.90;77.00;;;;;;1811210;79;21112;-57
2021/08/27 05:55:59;;;;;;;13.13;10.28;;;25.90;77.10;;;;;;1811384;79;21030;-57
2021/08/27 05:58:28;;;;;;;9.45;8.40;;;26.00;76.90;;;;;;1811220;79;21101;-57
2021/08/27 06:00:58;;;;;;;9.90;6.92;;;26.00;76.70;;;;;;1811358;79;21128;-57
2021/08/27 06:03:28;;;;;;;9.58;7.30;;;26.10;76.40;;;;;;1815862;78;21097;-57
2021/08/27 06:05:58;;;;;;;30.32;9.15;;;26.20;76.10;;;;;;1820362;78;21116;-57
2021/08/27 06:08:29;;;;;;;9.15;7.10;;;26.20;75.80;;;;;;1820497;79;21097;-57
2021/08/27 06:10:58;;;;;;;9.15;7.67;;;26.40;75.50;;;;;;1820276;79;21222;-57
2021/08/27 06:13:27;;;;;;;11.45;7.87;;;26.50;75.30;;;;;;1820455;79;21143;-57
2021/08/27 06:15:57;;;;;;;8.48;7.05;;;26.60;74.90;;;;;;1820319;79;21060;-57
2021/08/27 06:18:26;;;;;;;12.07;7.75;;;26.60;74.60;;;;;;1820458;79;21054;-57
2021/08/27 06:20:55;;;;;;;11.80;8.13;;;26.70;74.40;;;;;;1820427;78;21049;-57
2021/08/27 06:23:24;;;;;;;11.48;7.67;;;26.80;74.30;;;;;;1820550;78;21046;-57
2021/08/27 06:25:54;;;;;;;14.70;8.75;;;26.80;74.30;;;;;;1820359;79;21034;-57
2021/08/27 06:28:23;;;;;;;10.08;7.67;;;26.80;73.80;;;;;;1820594;79;21460;-57
2021/08/27 06:30:52;;;;;;;12.43;7.60;;;26.90;73.70;;;;;;1820477;79;21217;-57
2021/08/27 06:33:22;;;;;;;9.23;7.33;;;27.00;73.50;;;;;;1820384;79;21046;-57
2021/08/27 06:35:51;;;;;;;15.50;9.00;;;27.00;72.90;;;;;;1820391;79;21108;-57
2021/08/27 06:38:28;;;;;;;12.43;8.65;;;27.00;73.00;;;;;;1820447;79;21234;-57
2021/08/27 06:40:57;;;;;;;9.48;8.50;;;27.10;72.70;;;;;;1819152;78;21523;-57
2021/08/27 06:43:27;;;;;;;9.78;8.55;;;27.10;72.60;;;;;;1819563;78;21480;-57
2021/08/27 06:45:58;;;;;;;10.30;9.23;;;27.10;71.80;;;;;;1820393;79;21139;-57
2021/08/27 06:48:28;;;;;;;12.85;8.38;;;27.20;71.80;;;;;;1820324;79;21045;-57
2021/08/27 06:50:58;;;;;;;10.93;9.45;;;27.20;71.70;;;;;;1820444;79;21050;-57
2021/08/27 06:53:27;;;;;;;9.83;8.73;;;27.30;71.40;;;;;;1820372;79;21042;-57
2021/08/27 06:55:56;;;;;;;11.05;8.30;;;27.40;71.10;;;;;;1820513;79;21050;-57
2021/08/27 06:58:26;;;;;;;10.55;7.87;;;27.40;71.10;;;;;;1820406;78;21062;-57
2021/08/27 07:00:55;;;;;;;11.35;8.33;;;27.40;71.20;;;;;;1820377;79;21089;-57
2021/08/27 07:03:25;;;;;;;11.65;8.20;;;27.50;71.20;;;;;;1820501;78;21077;-57
2021/08/27 07:05:55;;;;;;;9.63;8.70;;;27.60;70.90;;;;;;1820389;79;21112;-57
2021/08/27 07:08:24;;;;;;;8.75;7.85;;;27.60;70.30;;;;;;1820431;79;21042;-57
2021/08/27 07:10:54;;;;;;;12.53;8.15;;;27.60;70.50;;;;;;1820425;79;21111;-57
2021/08/27 07:13:24;;;;;;;10.32;8.88;;;27.60;71.00;;;;;;1820401;79;21046;-57
2021/08/27 07:15:55;;;;;;;10.95;8.43;;;27.80;70.90;;;;;;1820341;79;21108;-57
2021/08/27 07:18:26;;;;;;;7.70;6.92;;;27.90;70.70;;;;;;1820526;79;21074;-52
2021/08/27 07:20:56;;;;;;;10.63;7.62;;;27.90;70.60;;;;;;1818811;79;21050;-51
2021/08/27 07:23:26;;;;;;;10.15;7.78;;;27.90;69.40;;;;;;1819807;79;21034;-49
2021/08/27 07:25:55;;;;;;;9.78;8.40;;;28.00;69.60;;;;;;1819826;79;21128;-48
2021/08/27 07:28:25;;;;;;;8.30;7.40;;;28.00;69.40;;;;;;1819766;78;21018;-51
2021/08/27 07:30:54;;;;;;;12.43;8.55;;;28.00;69.10;;;;;;1819780;79;21182;-52
2021/08/27 07:33:24;;;;;;;8.65;7.20;;;28.10;68.90;;;;;;1819786;79;21123;-52
2021/08/27 07:35:53;;;;;;;10.03;7.70;;;28.20;68.70;;;;;;1819803;78;21054;-51
2021/08/27 07:38:23;;;;;;;15.80;9.45;;;28.20;68.20;;;;;;1819831;79;21123;-56
2021/08/27 07:40:52;;;;;;;14.68;8.35;;;28.20;68.20;;;;;;1819879;78;21176;-53
2021/08/27 07:43:22;;;;;;;11.10;8.45;;;28.30;68.20;;;;;;1819790;79;21115;-52
2021/08/27 07:45:57;;;;;;;12.58;8.68;;;28.40;68.20;;;;;;1819754;79;21108;-51
2021/08/27 07:48:22;;;;;;;24.55;10.28;;;28.40;68.00;;;;;;1819528;78;21042;-50
2021/08/27 07:50:51;;;;;;;10.82;7.72;;;28.60;67.70;;;;;;1819725;79;21070;-51
2021/08/27 07:53:23;;;;;;;11.73;8.40;;;28.60;67.70;;;;;;1819749;79;21151;-52
2021/08/27 07:55:51;;;;;;;11.30;7.80;;;28.70;66.90;;;;;;1819925;79;21543;-50
2021/08/27 07:58:21;;;;;;;11.03;8.13;;;28.80;66.30;;;;;;1819705;78;21100;-52
2021/08/27 08:00:55;;;;;;;14.83;8.00;;;28.80;66.00;;;;;;1819734;79;21125;-49
2021/08/27 08:03:24;;;;;;;8.45;7.58;;;28.90;66.00;;;;;;1819632;79;21041;-49
2021/08/27 08:05:53;;;;;;;11.10;8.13;;;28.90;65.70;;;;;;1810561;78;21117;-47
2021/08/27 08:08:23;;;;;;;11.03;7.33;;;28.90;65.60;;;;;;1810666;79;21054;-49
2021/08/27 08:10:52;;;;;;;10.15;7.37;;;28.90;65.50;;;;;;1810425;79;21105;-46
2021/08/27 08:13:22;;;;;;;10.60;8.18;;;28.90;65.70;;;;;;1810692;79;21120;-47
2021/08/27 08:15:51;;;;;;;9.65;8.13;;;28.80;65.90;;;;;;1810550;79;21039;-45
2021/08/27 08:18:20;;;;;;;10.53;7.78;;;28.80;66.10;;;;;;1810592;79;21019;-51
2021/08/27 08:20:49;;;;;;;9.40;7.97;;;28.80;66.10;;;;;;1810668;79;21065;-51
2021/08/27 08:23:21;;;;;;;8.48;7.58;;;28.90;65.60;;;;;;1810687;79;21105;-49
2021/08/27 08:25:50;;;;;;;10.35;8.35;;;28.90;65.50;;;;;;1810756;79;21051;-50
2021/08/27 08:28:20;;;;;;;10.93;7.55;;;29.00;65.20;;;;;;1810777;78;21089;-52
2021/08/27 08:30:50;;;;;;;16.52;9.45;;;29.00;65.30;;;;;;1810606;79;21135;-54
2021/08/27 08:33:19;;;;;;;8.75;7.17;;;29.00;65.10;;;;;;1810418;78;21062;-53
2021/08/27 08:35:49;;;;;;;9.48;8.35;;;29.00;64.30;;;;;;1810574;79;21085;-52
2021/08/27 08:38:20;;;;;;;11.18;7.53;;;29.00;64.60;;;;;;1810574;79;21057;-52
2021/08/27 08:40:49;;;;;;;9.00;8.10;;;29.00;64.50;;;;;;1810527;79;21101;-50
2021/08/27 08:43:18;;;;;;;11.65;8.30;;;29.00;64.30;;;;;;1810593;78;21158;-47
2021/08/27 08:45:50;;;;;;;11.85;8.55;;;29.00;64.20;;;;;;1810581;79;21085;-50
2021/08/27 08:48:21;;;;;;;13.98;9.10;;;29.00;64.40;;;;;;1810602;78;21171;-50
2021/08/27 08:50:51;;;;;;;10.68;8.33;;;28.90;64.40;;;;;;1810566;79;21050;-51
2021/08/27 08:53:22;;;;;;;12.50;7.95;;;28.90;64.40;;;;;;1810593;79;21176;-49
2021/08/27 08:55:52;;;;;;;8.98;7.60;;;29.00;64.00;;;;;;1810653;78;21069;-48
2021/08/27 08:58:21;;;;;;;8.55;7.47;;;29.00;64.10;;;;;;1810750;79;22217;-52
2021/08/27 09:00:51;;;;;;;9.48;8.30;;;29.10;63.90;;;;;;1810648;79;21083;-53
2021/08/27 09:03:20;;;;;;;9.45;7.45;;;29.10;64.00;;;;;;1810484;79;21054;-53
2021/08/27 09:05:50;;;;;;;10.20;7.72;;;29.10;63.70;;;;;;1817284;79;21144;-51
2021/08/27 09:08:39;;;;;;;12.82;9.15;;;29.10;64.00;;;;;;1819736;79;21109;-52
2021/08/27 09:11:20;;;;;;;13.83;8.23;;;29.10;64.60;;;;;;1819709;79;21089;-50
2021/08/27 09:13:52;;;;;;;12.07;8.70;;;29.10;64.40;;;;;;1812313;78;21097;-49
2021/08/27 09:16:24;;;;;;;10.32;8.28;;;29.10;64.30;;;;;;1819891;79;21105;-52
2021/08/27 09:18:54;;;;;;;12.73;9.55;;;;;;;;;;1819419;78;21038;-50
2021/08/27 09:21:26;;;;;;;9.38;7.85;;;;;;;;;;1819883;78;21116;-48
2021/08/27 09:23:59;;;;;;;8.68;7.78;;;;;;;;;;1820008;79;21062;-51
2021/08/27 09:26:34;;;;;;;18.67;15.53;;;;;;;;;;1815214;78;21125;-49
2021/08/27 09:29:03;;;;;;;13.48;8.40;;;;;;;;;;1819840;78;21057;-50
2021/08/27 09:31:33;;;;;;;14.70;9.83;;;;;;;;;;1819851;79;21114;-49
2021/08/27 09:34:02;;;;;;;15.43;8.83;;;;;;;;;;1819214;78;21117;-46
2021/08/27 09:36:31;;;;;;;11.12;8.55;;;;;;;;;;1819930;79;21124;-46
2021/08/27 09:39:06;;;;;;;15.48;9.13;;;;;;;;;;1819808;79;21144;-49
2021/08/27 09:41:35;;;;;;;11.60;8.83;;;;;;;;;;1819617;79;21554;-49
2021/08/27 09:44:04;;;;;;;11.70;7.85;;;;;;;;;;1819872;79;21132;-47
2021/08/27 09:46:37;;;;;;;12.50;8.05;;;;;;;;;;1819900;79;21109;-45
2021/08/27 09:49:24;;;;;;;12.05;8.18;;;;;;;;;;1819773;79;21089;-48
2021/08/27 09:51:53;;;;;;;8.93;7.28;;;;;;;;;;1820187;79;21123;-54
2021/08/27 09:54:29;;;;;;;10.82;8.65;;;;;;;;;;1820641;79;21050;-51
2021/08/27 09:56:59;;;;;;;11.78;7.85;;;;;;;;;;1820498;79;21123;-51
2021/08/27 09:59:53;;;;;;;8.15;7.35;;;;;;;;;;1820005;78;21056;-51
2021/08/27 10:02:30;;;;;;;12.70;8.00;;;;;;;;;;1820620;78;21053;-51
2021/08/27 10:04:59;;;;;;;15.50;9.03;;;;;;;;;;1820415;79;21038;-50
2021/08/27 10:07:29;;;;;;;8.50;7.45;;;;;;;;;;1820535;79;21156;-49
2021/08/27 10:10:01;;;;;;;9.78;7.80;;;;;;;;;;1820538;79;21040;-51
2021/08/27 10:12:31;;;;;;;11.85;7.72;;;;;;;;;;1820534;79;21050;-50
2021/08/27 10:15:00;;;;;;;8.50;7.65;;;;;;;;;;1820482;79;21046;-51
2021/08/27 10:17:29;;;;;;;8.85;7.37;;;;;;;;;;1820505;79;21163;-50
2021/08/27 10:19:57;;;;;;;10.05;7.53;;;;;;;;;;1820589;79;21057;-50
2021/08/27 10:22:26;;;;;;;8.13;7.33;;;;;;;;;;1820499;79;21123;-48
2021/08/27 10:24:56;;;;;;;11.68;8.33;;;;;;;;;;1820456;79;21061;-50
2021/08/27 10:27:25;;;;;;;10.90;7.67;;;;;;;;;;1820339;79;21053;-51
2021/08/27 10:29:55;;;;;;;8.28;7.47;;;;;;;;;;1819837;79;21108;-48
2021/08/27 10:32:43;;;;;;;9.28;8.20;;;;;;;;;;1819355;79;21583;-51
2021/08/27 10:35:25;;;;;;;8.50;7.45;;;;;;;;;;1820432;79;21046;-51
2021/08/27 10:37:54;;;;;;;10.05;7.33;;;;;;;;;;1820448;79;21045;-51
2021/08/27 10:40:27;;;;;;;9.10;7.80;;;;;;;;;;1820371;79;21050;-50
2021/08/27 10:42:56;;;;;;;12.05;7.72;;;;;;;;;;1820453;79;21042;-51
2021/08/27 10:45:32;;;;;;;13.03;8.10;;;;;;;;;;1820334;79;21014;-52
2021/08/27 10:48:13;;;;;;;11.95;7.60;;;;;;;;;;1820435;79;21046;-49
2021/08/27 10:50:39;;;;;;;9.88;8.23;;;;;;;;;;1818916;78;21592;-52
2021/08/27 10:53:22;;;;;;;16.90;8.13;;;;;;;;;;1820108;78;21404;-51
2021/08/27 10:55:50;;;;;;;14.20;8.95;;;;;;;;;;1820327;79;21014;-51
2021/08/27 10:58:24;;;;;;;9.48;8.33;;;;;;;;;;1820363;79;21140;-51
2021/08/27 11:00:53;;;;;;;9.73;7.47;;;;;;;;;;1820574;79;21111;-51
2021/08/27 11:03:22;;;;;;;11.08;7.92;;;;;;;;;;1820398;79;21127;-50
2021/08/27 11:05:51;;;;;;;8.08;7.28;;;;;;;;;;1820304;78;21136;-51
2021/08/27 11:08:33;;;;;;;9.30;7.50;;;;;;;;;;1820451;78;21120;-52
2021/08/27 11:11:18;;;;;;;13.58;7.47;;;;;;;;;;1820311;79;21487;-51
2021/08/27 11:13:47;;;;;;;8.45;7.42;;;;;;;;;;1820385;79;21034;-51
2021/08/27 11:16:23;;;;;;;14.93;10.90;;;;;;;;;;1820468;79;21042;-52
2021/08/27 11:18:52;;;;;;;10.30;7.40;;;;;;;;;;1820465;79;21058;-51
2021/08/27 11:21:40;;;;;;;9.25;7.72;;;;;;;;;;1820546;79;21069;-52
2021/08/27 11:24:10;;;;;;;9.15;7.80;;;;;;;;;;1820400;79;21191;-49
2021/08/27 11:26:42;;;;;;;14.25;7.42;;;;;;;;;;1818280;78;21125;-51
2021/08/27 11:29:29;;;;;;;11.35;7.97;;;;;;;;;;1820490;79;21065;-52
2021/08/27 11:31:58;;;;;;;8.20;7.40;;;;;;;;;;1820482;78;21140;-51
2021/08/27 11:34:27;;;;;;;8.03;7.12;;;;;;;;;;1820461;79;21093;-51
2021/08/27 11:36:55;;;;;;;8.83;6.72;;;;;;;;;;1820389;79;21022;-51
2021/08/27 11:39:24;;;;;;;8.20;7.35;;;;;;;;;;1820412;78;21054;-49
2021/08/27 11:41:53;;;;;;;15.72;8.00;;;;;;;;;;1820494;79;21010;-52
2021/08/27 11:44:22;;;;;;;8.45;7.55;;;;;;;;;;1820413;79;21054;-50
2021/08/27 11:46:51;;;;;;;9.13;8.08;;;;;;;;;;1820448;79;21116;-51
2021/08/27 11:49:21;;;;;;;10.55;8.20;;;;;;;;;;1820380;79;21053;-50
2021/08/27 11:51:54;;;;;;;9.93;7.33;;;;;;;;;;1820430;79;21179;-50
2021/08/27 11:54:24;;;;;;;9.25;8.15;;;;;;;;;;1806626;78;21066;-52
2021/08/27 11:56:54;;;;;;;12.43;8.00;;;;;;;;;;1820342;79;21078;-52
2021/08/27 11:59:24;;;;;;;8.50;7.42;;;;;;;;;;1820393;79;21045;-52
2021/08/27 12:01:53;;;;;;;11.70;8.28;;;;;;;;;;1820409;79;21508;-51
2021/08/27 12:04:23;;;;;;;7.53;6.90;;;;;;;;;;1820208;79;21052;-52
2021/08/27 12:06:53;;;;;;;10.75;7.97;;;;;;;;;;1820111;79;21073;-50
2021/08/27 12:09:22;;;;;;;10.78;7.60;;;;;;;;;;1820494;78;21116;-51
2021/08/27 12:11:51;;;;;;;11.73;7.45;;;;;;;;;;1820330;79;21115;-52
2021/08/27 12:14:20;;;;;;;15.58;8.25;;;;;;;;;;1820413;79;21172;-52
2021/08/27 12:16:49;;;;;;;8.50;6.97;;;;;;;;;;1820622;78;21045;-52
2021/08/27 12:19:17;;;;;;;15.43;7.50;;;;;;;;;;1820440;79;21042;-51
2021/08/27 12:21:46;;;;;;;9.48;6.60;;;;;;;;;;1820507;79;21030;-52
2021/08/27 12:24:15;;;;;;;7.58;6.80;;;;;;;;;;1820359;78;21030;-51
2021/08/27 12:26:44;;;;;;;9.40;6.67;;;;;;;;;;1820416;79;21107;-50
2021/08/27 12:29:19;;;;;;;11.50;7.17;;;;;;;;;;1820342;79;21054;-51
2021/08/27 12:31:47;;;;;;;8.85;7.17;;;;;;;;;;1820332;79;21046;-52
2021/08/27 12:34:18;;;;;;;7.50;6.85;;;;;;;;;;1820357;79;21132;-50
2021/08/27 12:36:47;;;;;;;10.58;7.17;;;;;;;;;;1820325;79;21062;-52
2021/08/27 12:39:16;;;;;;;11.00;7.58;;;;;;;;;;1820447;79;21124;-52
2021/08/27 12:41:45;;;;;;;7.65;6.62;;;;;;;;;;1820454;79;21140;-52
2021/08/27 12:44:14;;;;;;;8.43;6.78;;;;;;;;;;1820362;79;21108;-53
2021/08/27 12:46:47;;;;;;;7.42;6.72;;;;;;;;;;1820337;79;21046;-50
2021/08/27 12:49:20;;;;;;;14.45;7.20;;;;;;;;;;1820395;79;21014;-53
2021/08/27 12:51:49;;;;;;;8.18;7.35;;;;;;;;;;1820387;79;21108;-52
2021/08/27 12:54:18;;;;;;;7.47;6.78;;;;;;;;;;1820482;79;21053;-50
2021/08/27 12:57:00;;;;;;;7.33;6.60;;;;;;;;;;1820430;79;21030;-52
2021/08/27 12:59:29;;;;;;;8.18;6.92;;;;;;;;;;1820573;78;21081;-53
2021/08/27 13:01:59;;;;;;;10.32;6.55;;;;;;;;;;1820535;79;21042;-51
2021/08/27 13:04:42;;;;;;;15.55;7.83;;;;;;;;;;1820569;79;21042;-52
2021/08/27 13:07:24;;;;;;;9.50;7.30;;;;;;;;;;1816139;78;21579;-53
2021/08/27 13:09:54;;;;;;;10.40;6.62;;;;;;;;;;1811280;78;21019;-52
2021/08/27 13:12:32;;;;;;;8.78;6.72;;;;;;;;;;1804210;78;21062;-53
2021/08/27 13:15:01;;;;;;;7.85;6.35;;;;;;;;;;1811311;79;21097;-53
2021/08/27 13:17:30;;;;;;;8.83;6.40;;;;;;;;;;1811362;79;21089;-53
2021/08/27 13:20:01;;;;;;;7.50;6.67;;;;;;;;;;1811328;79;21124;-54
2021/08/27 13:22:31;;;;;;;13.58;7.00;;;;;;;;;;1811406;78;21042;-53
2021/08/27 13:25:06;;;;;;;8.95;7.05;;;;;;;;;;1811254;79;21074;-54
2021/08/27 13:27:35;;;;;;;7.83;6.92;;;;;;;;;;1811546;79;21002;-54
2021/08/27 13:30:04;;;;;;;16.50;9.33;;;;;;;;;;1811422;79;21018;-53